Airfield :
LOGIN :

Register | Disclaimer

   EN    FR    IT 

 










Legend :    VFR   Marginal VFR   IFR   Intensive IFR   Very Intensive IFR
Visi :
Ceiling :
>= 8 km
>= 3000ft
5 to 8 km
1000 to 3000 ft
1500m to 5 km
500 to 1000 ft
800 to 1500m
200 to 500 ft
< 800m
< 200 ft
Symbols :   Thunderstorms  Fog  Heavy snow  Heavy precipitations  Wind > 20 kt
SIGMETs :     Misc.  Thunderstorms  Icing  Turbulence  Mountain Waves  Volcanic Ashes







- Airport Elevation : 79 ft
- IATA code : SPU


LDSP - Split

CURRENT METAR :
  • 251400Z 22006KT 9999 FEW040TCU 26/16 Q1013 NOSIG

EXPIRED METARs :
  • 251330Z 22008KT 9999 FEW040 27/17 Q1013 NOSIG
  • 251300Z 22009KT 9999 FEW030TCU 27/17 Q1013 NOSIG
  • 251230Z 23009KT 9999 FEW030TCU 27/18 Q1013 TEMPO TS FEW030CB
  • 251200Z 22009KT 9999 VCTS FEW030CB 26/18 Q1014 TEMPO TS
  • 251130Z 23010KT 9999 VCTS FEW030CB 27/18 Q1013 TEMPO TS

TAF TAF LDSP
Valid from the 25 at 12:00 until the 26 at 12:00 UTC


251125Z 2512/2612 23009KT 9999 FEW040 TX28/2513Z TN19/2603Z
PROB30
TEMPO 2512/2515 TS FEW035CB
BECMG 2517/2519 31005KT
BECMG 2610/2612 23010KT
No reported NOTAMs for that airfield.
1 SIGMET reported for the Zagreb FIR (LDZO) :
 
Frequent thunderstorms
LDZO SIGMET 2 VALID 251230/251400 LDZA
LDZO ZAGREB FIR FRQ TS OBS E OF LINE N4607 E01734 - N4448 E01851 TOP FL380 STNR NC=



MET'MAP, your aeronautical weather chart ! - Copyright ORBIFLY December 2007 - Disclaimer

ORBIFLY MET'MAP TEAM :

Programming & Development : Alexandra Zaïnal
Concept & Development : Baudouin d'Aumeries
Co-Development & Prog : Marc-Olivier Méhu
Technical & hardware support : Manuel Goepfert

Contact : metmap@orbifly.com




SOURCES & CREDITS :

   NOAA